sensor_id;sensor_type;location;lat;lon;timestamp;P1;durP1;ratioP1;P2;durP2;ratioP2
7485;SDS011;3784;54.098;9.998;2022-11-20T00:01:09;7.93;;;4.63;;
7485;SDS011;3784;54.098;9.998;2022-11-20T00:03:39;6.07;;;4.70;;
7485;SDS011;3784;54.098;9.998;2022-11-20T00:06:07;4.77;;;4.23;;
7485;SDS011;3784;54.098;9.998;2022-11-20T00:08:34;4.40;;;4.00;;
7485;SDS011;3784;54.098;9.998;2022-11-20T00:11:05;4.63;;;4.23;;
7485;SDS011;3784;54.098;9.998;2022-11-20T00:13:41;7.43;;;4.47;;
7485;SDS011;3784;54.098;9.998;2022-11-20T00:16:09;4.83;;;4.07;;
7485;SDS011;3784;54.098;9.998;2022-11-20T00:18:37;5.37;;;4.30;;
7485;SDS011;3784;54.098;9.998;2022-11-20T00:21:09;6.90;;;4.03;;
7485;SDS011;3784;54.098;9.998;2022-11-20T00:23:37;6.90;;;4.53;;
7485;SDS011;3784;54.098;9.998;2022-11-20T00:26:08;4.83;;;4.00;;
7485;SDS011;3784;54.098;9.998;2022-11-20T00:28:36;4.73;;;4.23;;
7485;SDS011;3784;54.098;9.998;2022-11-20T00:31:04;5.43;;;4.10;;
7485;SDS011;3784;54.098;9.998;2022-11-20T00:33:32;4.20;;;3.80;;
7485;SDS011;3784;54.098;9.998;2022-11-20T00:35:59;4.87;;;4.27;;
7485;SDS011;3784;54.098;9.998;2022-11-20T00:38:31;4.73;;;4.23;;
7485;SDS011;3784;54.098;9.998;2022-11-20T00:40:58;4.83;;;4.33;;
7485;SDS011;3784;54.098;9.998;2022-11-20T00:43:26;5.13;;;4.50;;
7485;SDS011;3784;54.098;9.998;2022-11-20T00:45:56;4.90;;;4.10;;
7485;SDS011;3784;54.098;9.998;2022-11-20T00:48:25;6.07;;;4.80;;
7485;SDS011;3784;54.098;9.998;2022-11-20T00:50:52;4.97;;;4.30;;
7485;SDS011;3784;54.098;9.998;2022-11-20T00:53:19;5.77;;;4.23;;
7485;SDS011;3784;54.098;9.998;2022-11-20T00:55:53;4.83;;;4.27;;
7485;SDS011;3784;54.098;9.998;2022-11-20T00:58:21;4.60;;;4.20;;
7485;SDS011;3784;54.098;9.998;2022-11-20T01:00:48;5.00;;;4.50;;
7485;SDS011;3784;54.098;9.998;2022-11-20T01:03:19;6.70;;;4.83;;
7485;SDS011;3784;54.098;9.998;2022-11-20T01:05:52;5.27;;;4.57;;
7485;SDS011;3784;54.098;9.998;2022-11-20T01:08:18;5.83;;;4.40;;
7485;SDS011;3784;54.098;9.998;2022-11-20T01:10:44;4.47;;;4.07;;
7485;SDS011;3784;54.098;9.998;2022-11-20T01:13:11;5.53;;;4.30;;
7485;SDS011;3784;54.098;9.998;2022-11-20T01:16:01;5.23;;;4.00;;
7485;SDS011;3784;54.098;9.998;2022-11-20T01:18:28;6.20;;;4.30;;
7485;SDS011;3784;54.098;9.998;2022-11-20T01:20:55;6.67;;;4.80;;
7485;SDS011;3784;54.098;9.998;2022-11-20T01:23:21;4.23;;;3.83;;
7485;SDS011;3784;54.098;9.998;2022-11-20T01:25:48;5.30;;;3.90;;
7485;SDS011;3784;54.098;9.998;2022-11-20T01:28:14;6.00;;;4.13;;
7485;SDS011;3784;54.098;9.998;2022-11-20T01:30:41;8.97;;;4.27;;
7485;SDS011;3784;54.098;9.998;2022-11-20T01:33:07;7.33;;;4.20;;
7485;SDS011;3784;54.098;9.998;2022-11-20T01:35:34;6.00;;;4.23;;
7485;SDS011;3784;54.098;9.998;2022-11-20T01:38:00;4.63;;;4.10;;
7485;SDS011;3784;54.098;9.998;2022-11-20T01:40:27;4.90;;;4.40;;
7485;SDS011;3784;54.098;9.998;2022-11-20T01:42:58;5.37;;;4.50;;
7485;SDS011;3784;54.098;9.998;2022-11-20T01:48:23;4.23;;;3.67;;
7485;SDS011;3784;54.098;9.998;2022-11-20T01:50:52;5.73;;;4.00;;
7485;SDS011;3784;54.098;9.998;2022-11-20T01:53:21;4.30;;;3.90;;
7485;SDS011;3784;54.098;9.998;2022-11-20T01:55:51;4.63;;;4.23;;
7485;SDS011;3784;54.098;9.998;2022-11-20T01:58:20;6.83;;;4.27;;
7485;SDS011;3784;54.098;9.998;2022-11-20T02:00:50;5.50;;;4.40;;
7485;SDS011;3784;54.098;9.998;2022-11-20T02:03:17;4.77;;;4.10;;
7485;SDS011;3784;54.098;9.998;2022-11-20T02:05:46;5.50;;;3.80;;
7485;SDS011;3784;54.098;9.998;2022-11-20T02:08:15;4.30;;;3.90;;
7485;SDS011;3784;54.098;9.998;2022-11-20T02:10:42;4.27;;;3.87;;
7485;SDS011;3784;54.098;9.998;2022-11-20T02:13:08;5.07;;;3.97;;
7485;SDS011;3784;54.098;9.998;2022-11-20T02:15:54;5.97;;;4.30;;
7485;SDS011;3784;54.098;9.998;2022-11-20T02:18:20;4.30;;;3.67;;
7485;SDS011;3784;54.098;9.998;2022-11-20T02:20:48;6.53;;;4.30;;
7485;SDS011;3784;54.098;9.998;2022-11-20T02:25:50;5.70;;;4.00;;
7485;SDS011;3784;54.098;9.998;2022-11-20T02:28:17;5.83;;;4.10;;
7485;SDS011;3784;54.098;9.998;2022-11-20T02:30:44;4.33;;;3.93;;
7485;SDS011;3784;54.098;9.998;2022-11-20T02:33:10;5.10;;;4.03;;
7485;SDS011;3784;54.098;9.998;2022-11-20T02:35:44;5.43;;;3.70;;
7485;SDS011;3784;54.098;9.998;2022-11-20T02:38:12;4.73;;;3.50;;
7485;SDS011;3784;54.098;9.998;2022-11-20T02:40:39;4.50;;;3.97;;
7485;SDS011;3784;54.098;9.998;2022-11-20T02:43:06;5.23;;;3.67;;
7485;SDS011;3784;54.098;9.998;2022-11-20T02:45:32;4.43;;;3.70;;
7485;SDS011;3784;54.098;9.998;2022-11-20T02:47:59;3.77;;;3.40;;
7485;SDS011;3784;54.098;9.998;2022-11-20T02:50:26;6.07;;;3.77;;
7485;SDS011;3784;54.098;9.998;2022-11-20T02:52:52;5.63;;;3.93;;
7485;SDS011;3784;54.098;9.998;2022-11-20T02:55:19;7.20;;;3.70;;
7485;SDS011;3784;54.098;9.998;2022-11-20T02:57:45;4.20;;;3.80;;
7485;SDS011;3784;54.098;9.998;2022-11-20T03:00:12;5.87;;;3.40;;
7485;SDS011;3784;54.098;9.998;2022-11-20T03:02:39;4.17;;;3.77;;
7485;SDS011;3784;54.098;9.998;2022-11-20T03:05:05;5.53;;;3.93;;
7485;SDS011;3784;54.098;9.998;2022-11-20T03:07:32;4.63;;;3.33;;
7485;SDS011;3784;54.098;9.998;2022-11-20T03:09:58;5.37;;;3.60;;
7485;SDS011;3784;54.098;9.998;2022-11-20T03:12:25;3.93;;;3.53;;
7485;SDS011;3784;54.098;9.998;2022-11-20T03:14:51;4.47;;;3.87;;
7485;SDS011;3784;54.098;9.998;2022-11-20T03:17:18;6.53;;;3.33;;
7485;SDS011;3784;54.098;9.998;2022-11-20T03:19:45;5.40;;;3.70;;
7485;SDS011;3784;54.098;9.998;2022-11-20T03:22:12;5.70;;;3.50;;
7485;SDS011;3784;54.098;9.998;2022-11-20T03:24:38;4.60;;;3.27;;
7485;SDS011;3784;54.098;9.998;2022-11-20T03:27:05;3.57;;;3.23;;
7485;SDS011;3784;54.098;9.998;2022-11-20T03:29:31;4.13;;;3.50;;
7485;SDS011;3784;54.098;9.998;2022-11-20T03:31:58;6.07;;;3.60;;
7485;SDS011;3784;54.098;9.998;2022-11-20T03:34:25;6.07;;;4.50;;
7485;SDS011;3784;54.098;9.998;2022-11-20T03:36:51;5.70;;;4.30;;
7485;SDS011;3784;54.098;9.998;2022-11-20T03:39:17;4.60;;;3.60;;
7485;SDS011;3784;54.098;9.998;2022-11-20T03:41:44;7.60;;;3.80;;
7485;SDS011;3784;54.098;9.998;2022-11-20T03:44:11;5.30;;;4.10;;
7485;SDS011;3784;54.098;9.998;2022-11-20T03:46:38;4.87;;;3.70;;
7485;SDS011;3784;54.098;9.998;2022-11-20T03:49:04;4.57;;;3.60;;
7485;SDS011;3784;54.098;9.998;2022-11-20T03:51:32;4.00;;;3.60;;
7485;SDS011;3784;54.098;9.998;2022-11-20T03:54:00;5.83;;;3.00;;
7485;SDS011;3784;54.098;9.998;2022-11-20T03:56:30;4.83;;;3.50;;
7485;SDS011;3784;54.098;9.998;2022-11-20T03:58:58;4.03;;;3.13;;
7485;SDS011;3784;54.098;9.998;2022-11-20T04:01:25;4.10;;;3.67;;
7485;SDS011;3784;54.098;9.998;2022-11-20T04:03:54;5.50;;;3.10;;
7485;SDS011;3784;54.098;9.998;2022-11-20T04:06:24;5.50;;;4.03;;
7485;SDS011;3784;54.098;9.998;2022-11-20T04:08:54;4.93;;;3.30;;
7485;SDS011;3784;54.098;9.998;2022-11-20T04:11:22;4.67;;;3.30;;
7485;SDS011;3784;54.098;9.998;2022-11-20T04:13:51;4.70;;;3.47;;
7485;SDS011;3784;54.098;9.998;2022-11-20T04:16:20;5.97;;;3.60;;
7485;SDS011;3784;54.098;9.998;2022-11-20T04:18:47;3.57;;;3.27;;
7485;SDS011;3784;54.098;9.998;2022-11-20T04:21:13;3.97;;;3.47;;
7485;SDS011;3784;54.098;9.998;2022-11-20T04:23:40;4.67;;;3.27;;
7485;SDS011;3784;54.098;9.998;2022-11-20T04:26:07;6.80;;;3.30;;
7485;SDS011;3784;54.098;9.998;2022-11-20T04:28:35;4.07;;;3.13;;
7485;SDS011;3784;54.098;9.998;2022-11-20T04:31:06;3.70;;;3.40;;
7485;SDS011;3784;54.098;9.998;2022-11-20T04:33:34;3.80;;;3.40;;
7485;SDS011;3784;54.098;9.998;2022-11-20T04:36:06;6.80;;;3.50;;
7485;SDS011;3784;54.098;9.998;2022-11-20T04:38:36;5.90;;;3.90;;
7485;SDS011;3784;54.098;9.998;2022-11-20T04:41:03;3.87;;;3.40;;
7485;SDS011;3784;54.098;9.998;2022-11-20T04:43:31;5.97;;;4.20;;
7485;SDS011;3784;54.098;9.998;2022-11-20T04:45:59;3.73;;;3.20;;
7485;SDS011;3784;54.098;9.998;2022-11-20T04:48:27;4.67;;;3.80;;
7485;SDS011;3784;54.098;9.998;2022-11-20T04:50:54;4.83;;;3.70;;
7485;SDS011;3784;54.098;9.998;2022-11-20T04:53:21;6.03;;;3.80;;
7485;SDS011;3784;54.098;9.998;2022-11-20T04:55:48;3.70;;;3.40;;
7485;SDS011;3784;54.098;9.998;2022-11-20T04:58:14;4.40;;;3.90;;
7485;SDS011;3784;54.098;9.998;2022-11-20T05:00:42;5.10;;;4.60;;
7485;SDS011;3784;54.098;9.998;2022-11-20T05:03:09;4.27;;;3.87;;
7485;SDS011;3784;54.098;9.998;2022-11-20T05:05:35;4.83;;;3.87;;
7485;SDS011;3784;54.098;9.998;2022-11-20T05:08:02;5.07;;;3.87;;
7485;SDS011;3784;54.098;9.998;2022-11-20T05:10:29;4.07;;;3.73;;
7485;SDS011;3784;54.098;9.998;2022-11-20T05:12:56;5.53;;;4.20;;
7485;SDS011;3784;54.098;9.998;2022-11-20T07:17:50;10.47;;;8.00;;
7485;SDS011;3784;54.098;9.998;2022-11-20T07:33:18;9.93;;;7.47;;
7485;SDS011;3784;54.098;9.998;2022-11-20T08:04:30;12.47;;;9.50;;
7485;SDS011;3784;54.098;9.998;2022-11-20T09:01:36;9.63;;;7.80;;
7485;SDS011;3784;54.098;9.998;2022-11-20T09:12:39;15.50;;;11.50;;
7485;SDS011;3784;54.098;9.998;2022-11-20T09:29:39;18.20;;;12.63;;
7485;SDS011;3784;54.098;9.998;2022-11-20T09:36:11;10.73;;;8.77;;
7485;SDS011;3784;54.098;9.998;2022-11-20T09:57:53;9.53;;;4.70;;
7485;SDS011;3784;54.098;9.998;2022-11-20T10:00:53;6.77;;;4.97;;
7485;SDS011;3784;54.098;9.998;2022-11-20T10:31:56;3.97;;;3.63;;
7485;SDS011;3784;54.098;9.998;2022-11-20T10:43:32;3.40;;;2.60;;
7485;SDS011;3784;54.098;9.998;2022-11-20T11:13:50;6.43;;;5.80;;
7485;SDS011;3784;54.098;9.998;2022-11-20T11:16:24;6.50;;;5.77;;
7485;SDS011;3784;54.098;9.998;2022-11-20T11:19:02;7.17;;;6.47;;
7485;SDS011;3784;54.098;9.998;2022-11-20T11:21:32;8.20;;;5.70;;
7485;SDS011;3784;54.098;9.998;2022-11-20T11:24:00;6.70;;;6.10;;
7485;SDS011;3784;54.098;9.998;2022-11-20T11:26:56;7.53;;;6.67;;
7485;SDS011;3784;54.098;9.998;2022-11-20T11:29:30;7.77;;;5.90;;
7485;SDS011;3784;54.098;9.998;2022-11-20T11:32:04;7.47;;;6.20;;
7485;SDS011;3784;54.098;9.998;2022-11-20T11:34:32;6.87;;;6.27;;
7485;SDS011;3784;54.098;9.998;2022-11-20T11:37:00;6.70;;;6.10;;
7485;SDS011;3784;54.098;9.998;2022-11-20T11:39:28;6.20;;;5.70;;
7485;SDS011;3784;54.098;9.998;2022-11-20T11:41:55;5.90;;;5.40;;
7485;SDS011;3784;54.098;9.998;2022-11-20T11:47:24;6.63;;;6.03;;
7485;SDS011;3784;54.098;9.998;2022-11-20T11:52:28;7.47;;;6.77;;
7485;SDS011;3784;54.098;9.998;2022-11-20T11:54:56;7.33;;;6.60;;
7485;SDS011;3784;54.098;9.998;2022-11-20T11:57:43;6.70;;;6.10;;
7485;SDS011;3784;54.098;9.998;2022-11-20T12:00:21;6.47;;;5.87;;
7485;SDS011;3784;54.098;9.998;2022-11-20T12:02:53;6.27;;;5.67;;
7485;SDS011;3784;54.098;9.998;2022-11-20T12:05:46;6.17;;;5.63;;
7485;SDS011;3784;54.098;9.998;2022-11-20T12:08:20;5.97;;;5.47;;
7485;SDS011;3784;54.098;9.998;2022-11-20T12:10:50;5.40;;;4.90;;
7485;SDS011;3784;54.098;9.998;2022-11-20T12:13:26;5.00;;;4.60;;
7485;SDS011;3784;54.098;9.998;2022-11-20T12:15:57;5.40;;;4.93;;
7485;SDS011;3784;54.098;9.998;2022-11-20T12:18:24;4.93;;;4.43;;
7485;SDS011;3784;54.098;9.998;2022-11-20T12:20:59;5.13;;;4.63;;
7485;SDS011;3784;54.098;9.998;2022-11-20T12:26:03;5.23;;;4.37;;
7485;SDS011;3784;54.098;9.998;2022-11-20T12:28:37;4.83;;;4.27;;
7485;SDS011;3784;54.098;9.998;2022-11-20T12:37:17;3.73;;;3.30;;
7485;SDS011;3784;54.098;9.998;2022-11-20T12:39:52;4.47;;;4.07;;
7485;SDS011;3784;54.098;9.998;2022-11-20T12:45:38;5.00;;;4.60;;
7485;SDS011;3784;54.098;9.998;2022-11-20T12:49:02;4.27;;;3.87;;
7485;SDS011;3784;54.098;9.998;2022-11-20T12:51:41;4.67;;;3.50;;
7485;SDS011;3784;54.098;9.998;2022-11-20T12:59:50;3.30;;;2.90;;
7485;SDS011;3784;54.098;9.998;2022-11-20T13:02:44;3.30;;;2.93;;
7485;SDS011;3784;54.098;9.998;2022-11-20T13:07:48;4.60;;;3.87;;
7485;SDS011;3784;54.098;9.998;2022-11-20T13:10:36;6.43;;;5.67;;
7485;SDS011;3784;54.098;9.998;2022-11-20T13:13:13;6.93;;;5.90;;
7485;SDS011;3784;54.098;9.998;2022-11-20T13:15:51;6.93;;;5.40;;
7485;SDS011;3784;54.098;9.998;2022-11-20T13:18:21;7.90;;;4.80;;
7485;SDS011;3784;54.098;9.998;2022-11-20T13:20:48;4.93;;;4.43;;
7485;SDS011;3784;54.098;9.998;2022-11-20T13:23:25;3.60;;;3.30;;
7485;SDS011;3784;54.098;9.998;2022-11-20T13:26:06;3.13;;;2.83;;
7485;SDS011;3784;54.098;9.998;2022-11-20T13:31:51;3.57;;;3.13;;
7485;SDS011;3784;54.098;9.998;2022-11-20T13:34:26;2.90;;;2.60;;
7485;SDS011;3784;54.098;9.998;2022-11-20T13:36:54;2.80;;;2.50;;
7485;SDS011;3784;54.098;9.998;2022-11-20T13:41:54;2.77;;;2.57;;
7485;SDS011;3784;54.098;9.998;2022-11-20T13:44:23;2.90;;;2.60;;
7485;SDS011;3784;54.098;9.998;2022-11-20T13:46:51;3.03;;;2.73;;
7485;SDS011;3784;54.098;9.998;2022-11-20T14:00:22;12.53;;;9.17;;
7485;SDS011;3784;54.098;9.998;2022-11-20T14:05:39;4.50;;;3.47;;
7485;SDS011;3784;54.098;9.998;2022-11-20T14:08:12;8.20;;;4.30;;
7485;SDS011;3784;54.098;9.998;2022-11-20T14:10:43;3.90;;;3.50;;
7485;SDS011;3784;54.098;9.998;2022-11-20T14:13:20;5.37;;;3.90;;
7485;SDS011;3784;54.098;9.998;2022-11-20T14:15:47;4.67;;;3.50;;
7485;SDS011;3784;54.098;9.998;2022-11-20T14:18:14;3.93;;;3.47;;
7485;SDS011;3784;54.098;9.998;2022-11-20T14:20:48;4.33;;;3.93;;
7485;SDS011;3784;54.098;9.998;2022-11-20T14:23:23;8.53;;;4.83;;
7485;SDS011;3784;54.098;9.998;2022-11-20T14:25:55;4.33;;;3.93;;
7485;SDS011;3784;54.098;9.998;2022-11-20T14:28:26;5.53;;;4.70;;
7485;SDS011;3784;54.098;9.998;2022-11-20T14:30:53;6.00;;;5.40;;
7485;SDS011;3784;54.098;9.998;2022-11-20T14:33:21;8.20;;;6.80;;
7485;SDS011;3784;54.098;9.998;2022-11-20T14:35:54;8.53;;;7.57;;
7485;SDS011;3784;54.098;9.998;2022-11-20T14:38:24;9.80;;;8.33;;
7485;SDS011;3784;54.098;9.998;2022-11-20T14:40:51;10.37;;;8.30;;
7485;SDS011;3784;54.098;9.998;2022-11-20T14:45:48;9.80;;;8.53;;
7485;SDS011;3784;54.098;9.998;2022-11-20T14:48:23;11.43;;;8.90;;
7485;SDS011;3784;54.098;9.998;2022-11-20T14:50:51;10.20;;;9.00;;
7485;SDS011;3784;54.098;9.998;2022-11-20T14:53:22;10.23;;;8.73;;
7485;SDS011;3784;54.098;9.998;2022-11-20T14:55:57;9.93;;;8.93;;
7485;SDS011;3784;54.098;9.998;2022-11-20T14:58:27;11.00;;;9.90;;
7485;SDS011;3784;54.098;9.998;2022-11-20T15:03:38;14.33;;;12.50;;
7485;SDS011;3784;54.098;9.998;2022-11-20T15:06:06;11.63;;;10.27;;
7485;SDS011;3784;54.098;9.998;2022-11-20T15:08:34;11.57;;;10.30;;
7485;SDS011;3784;54.098;9.998;2022-11-20T15:11:00;13.27;;;10.87;;
7485;SDS011;3784;54.098;9.998;2022-11-20T15:13:37;15.20;;;10.77;;
7485;SDS011;3784;54.098;9.998;2022-11-20T15:16:09;9.70;;;8.70;;
7485;SDS011;3784;54.098;9.998;2022-11-20T15:18:43;8.43;;;7.57;;
7485;SDS011;3784;54.098;9.998;2022-11-20T15:21:14;7.40;;;6.67;;
7485;SDS011;3784;54.098;9.998;2022-11-20T15:23:42;8.80;;;7.13;;
7485;SDS011;3784;54.098;9.998;2022-11-20T15:26:10;8.47;;;7.57;;
7485;SDS011;3784;54.098;9.998;2022-11-20T15:28:45;8.53;;;7.20;;
7485;SDS011;3784;54.098;9.998;2022-11-20T15:31:14;8.13;;;7.00;;
7485;SDS011;3784;54.098;9.998;2022-11-20T15:33:46;9.23;;;8.33;;
7485;SDS011;3784;54.098;9.998;2022-11-20T15:36:12;8.47;;;7.63;;
7485;SDS011;3784;54.098;9.998;2022-11-20T15:38:39;10.27;;;8.10;;
7485;SDS011;3784;54.098;9.998;2022-11-20T15:41:06;7.93;;;7.13;;
7485;SDS011;3784;54.098;9.998;2022-11-20T15:43:33;9.00;;;7.20;;
7485;SDS011;3784;54.098;9.998;2022-11-20T15:46:00;8.77;;;7.70;;
7485;SDS011;3784;54.098;9.998;2022-11-20T15:48:30;9.00;;;8.07;;
7485;SDS011;3784;54.098;9.998;2022-11-20T15:53:30;9.33;;;8.43;;
7485;SDS011;3784;54.098;9.998;2022-11-20T15:55:56;9.20;;;8.40;;
7485;SDS011;3784;54.098;9.998;2022-11-20T15:58:23;10.53;;;9.43;;
7485;SDS011;3784;54.098;9.998;2022-11-20T16:00:50;11.00;;;9.93;;
7485;SDS011;3784;54.098;9.998;2022-11-20T16:03:17;11.30;;;10.20;;
7485;SDS011;3784;54.098;9.998;2022-11-20T16:05:44;13.07;;;11.63;;
7485;SDS011;3784;54.098;9.998;2022-11-20T16:08:10;12.93;;;11.57;;
7485;SDS011;3784;54.098;9.998;2022-11-20T16:10:37;11.70;;;10.47;;
7485;SDS011;3784;54.098;9.998;2022-11-20T16:13:04;11.20;;;10.00;;
7485;SDS011;3784;54.098;9.998;2022-11-20T16:15:51;11.23;;;10.10;;
7485;SDS011;3784;54.098;9.998;2022-11-20T16:18:20;10.67;;;9.43;;
7485;SDS011;3784;54.098;9.998;2022-11-20T16:20:51;12.53;;;10.57;;
7485;SDS011;3784;54.098;9.998;2022-11-20T16:23:18;28.30;;;20.57;;
7485;SDS011;3784;54.098;9.998;2022-11-20T16:25:46;27.67;;;21.73;;
7485;SDS011;3784;54.098;9.998;2022-11-20T16:28:13;18.93;;;14.77;;
7485;SDS011;3784;54.098;9.998;2022-11-20T16:30:44;17.10;;;12.20;;
7485;SDS011;3784;54.098;9.998;2022-11-20T16:33:12;13.17;;;11.87;;
7485;SDS011;3784;54.098;9.998;2022-11-20T16:35:40;11.57;;;10.27;;
7485;SDS011;3784;54.098;9.998;2022-11-20T16:38:07;11.57;;;10.37;;
7485;SDS011;3784;54.098;9.998;2022-11-20T16:40:33;11.10;;;9.83;;
7485;SDS011;3784;54.098;9.998;2022-11-20T16:43:10;9.93;;;9.00;;
7485;SDS011;3784;54.098;9.998;2022-11-20T16:45:39;15.77;;;14.07;;
7485;SDS011;3784;54.098;9.998;2022-11-20T16:48:06;32.30;;;28.33;;
7485;SDS011;3784;54.098;9.998;2022-11-20T16:50:42;27.30;;;21.53;;
7485;SDS011;3784;54.098;9.998;2022-11-20T16:53:10;21.37;;;18.73;;
7485;SDS011;3784;54.098;9.998;2022-11-20T16:55:37;19.27;;;17.00;;
7485;SDS011;3784;54.098;9.998;2022-11-20T16:58:03;16.70;;;13.20;;
7485;SDS011;3784;54.098;9.998;2022-11-20T17:00:30;12.17;;;10.87;;
7485;SDS011;3784;54.098;9.998;2022-11-20T17:02:56;11.77;;;10.57;;
7485;SDS011;3784;54.098;9.998;2022-11-20T17:05:37;11.57;;;10.40;;
7485;SDS011;3784;54.098;9.998;2022-11-20T17:08:04;11.10;;;9.93;;
7485;SDS011;3784;54.098;9.998;2022-11-20T17:10:31;11.77;;;10.57;;
7485;SDS011;3784;54.098;9.998;2022-11-20T17:12:57;13.67;;;12.10;;
7485;SDS011;3784;54.098;9.998;2022-11-20T17:15:23;18.00;;;14.93;;
7485;SDS011;3784;54.098;9.998;2022-11-20T17:17:50;20.40;;;17.30;;
7485;SDS011;3784;54.098;9.998;2022-11-20T17:20:16;27.10;;;22.43;;
7485;SDS011;3784;54.098;9.998;2022-11-20T17:22:43;26.60;;;21.57;;
7485;SDS011;3784;54.098;9.998;2022-11-20T17:25:09;23.73;;;18.93;;
7485;SDS011;3784;54.098;9.998;2022-11-20T17:27:36;16.53;;;14.27;;
7485;SDS011;3784;54.098;9.998;2022-11-20T17:30:02;18.33;;;14.00;;
7485;SDS011;3784;54.098;9.998;2022-11-20T17:32:29;18.73;;;13.93;;
7485;SDS011;3784;54.098;9.998;2022-11-20T17:34:55;12.50;;;11.07;;
7485;SDS011;3784;54.098;9.998;2022-11-20T17:37:23;14.77;;;13.17;;
7485;SDS011;3784;54.098;9.998;2022-11-20T17:39:50;14.73;;;12.13;;
7485;SDS011;3784;54.098;9.998;2022-11-20T17:42:17;12.23;;;10.90;;
7485;SDS011;3784;54.098;9.998;2022-11-20T17:44:52;14.83;;;10.93;;
7485;SDS011;3784;54.098;9.998;2022-11-20T17:47:18;12.30;;;11.00;;
7485;SDS011;3784;54.098;9.998;2022-11-20T17:49:45;14.00;;;11.20;;
7485;SDS011;3784;54.098;9.998;2022-11-20T17:52:11;18.73;;;14.53;;
7485;SDS011;3784;54.098;9.998;2022-11-20T17:54:38;13.73;;;11.60;;
7485;SDS011;3784;54.098;9.998;2022-11-20T17:57:05;13.80;;;12.30;;
7485;SDS011;3784;54.098;9.998;2022-11-20T17:59:52;14.90;;;12.70;;
7485;SDS011;3784;54.098;9.998;2022-11-20T18:02:21;15.20;;;13.57;;
7485;SDS011;3784;54.098;9.998;2022-11-20T18:04:47;17.97;;;16.10;;
7485;SDS011;3784;54.098;9.998;2022-11-20T18:07:15;24.23;;;20.40;;
7485;SDS011;3784;54.098;9.998;2022-11-20T18:09:41;35.77;;;24.60;;
7485;SDS011;3784;54.098;9.998;2022-11-20T18:12:08;46.80;;;34.30;;
7485;SDS011;3784;54.098;9.998;2022-11-20T18:14:35;33.77;;;25.97;;
7485;SDS011;3784;54.098;9.998;2022-11-20T18:17:05;19.90;;;17.57;;
7485;SDS011;3784;54.098;9.998;2022-11-20T18:19:45;22.30;;;16.47;;
7485;SDS011;3784;54.098;9.998;2022-11-20T18:22:33;23.87;;;18.43;;
7485;SDS011;3784;54.098;9.998;2022-11-20T18:24:59;24.33;;;19.70;;
7485;SDS011;3784;54.098;9.998;2022-11-20T18:27:26;23.37;;;19.97;;
7485;SDS011;3784;54.098;9.998;2022-11-20T18:29:52;26.23;;;19.23;;
7485;SDS011;3784;54.098;9.998;2022-11-20T18:32:19;25.37;;;21.23;;
7485;SDS011;3784;54.098;9.998;2022-11-20T18:34:47;22.57;;;18.27;;
7485;SDS011;3784;54.098;9.998;2022-11-20T18:37:14;22.37;;;19.77;;
7485;SDS011;3784;54.098;9.998;2022-11-20T18:39:41;21.90;;;17.93;;
7485;SDS011;3784;54.098;9.998;2022-11-20T18:42:12;23.27;;;19.73;;
7485;SDS011;3784;54.098;9.998;2022-11-20T18:44:58;21.93;;;19.73;;
7485;SDS011;3784;54.098;9.998;2022-11-20T18:47:26;21.67;;;19.17;;
7485;SDS011;3784;54.098;9.998;2022-11-20T18:49:57;21.27;;;18.73;;
7485;SDS011;3784;54.098;9.998;2022-11-20T18:55:14;22.07;;;19.73;;
7485;SDS011;3784;54.098;9.998;2022-11-20T18:57:43;20.60;;;18.40;;
7485;SDS011;3784;54.098;9.998;2022-11-20T19:00:10;19.87;;;17.77;;
7485;SDS011;3784;54.098;9.998;2022-11-20T19:02:37;20.23;;;17.97;;
7485;SDS011;3784;54.098;9.998;2022-11-20T19:05:24;23.53;;;20.53;;
7485;SDS011;3784;54.098;9.998;2022-11-20T19:07:52;31.53;;;25.87;;
7485;SDS011;3784;54.098;9.998;2022-11-20T19:10:18;29.97;;;26.23;;
7485;SDS011;3784;54.098;9.998;2022-11-20T19:12:46;25.07;;;22.33;;
7485;SDS011;3784;54.098;9.998;2022-11-20T19:15:13;23.93;;;20.47;;
7485;SDS011;3784;54.098;9.998;2022-11-20T19:17:40;47.97;;;33.30;;
7485;SDS011;3784;54.098;9.998;2022-11-20T19:20:06;77.00;;;45.67;;
7485;SDS011;3784;54.098;9.998;2022-11-20T19:22:33;60.50;;;37.90;;
7485;SDS011;3784;54.098;9.998;2022-11-20T19:25:00;54.40;;;36.00;;
7485;SDS011;3784;54.098;9.998;2022-11-20T19:27:37;57.77;;;39.10;;
7485;SDS011;3784;54.098;9.998;2022-11-20T19:30:03;57.17;;;36.90;;
7485;SDS011;3784;54.098;9.998;2022-11-20T19:32:30;44.03;;;30.17;;
7485;SDS011;3784;54.098;9.998;2022-11-20T19:34:57;53.40;;;36.27;;
7485;SDS011;3784;54.098;9.998;2022-11-20T19:37:24;60.13;;;39.53;;
7485;SDS011;3784;54.098;9.998;2022-11-20T19:39:50;50.43;;;33.73;;
7485;SDS011;3784;54.098;9.998;2022-11-20T19:42:17;43.23;;;30.03;;
7485;SDS011;3784;54.098;9.998;2022-11-20T19:44:44;40.33;;;28.87;;
7485;SDS011;3784;54.098;9.998;2022-11-20T19:47:10;34.27;;;25.40;;
7485;SDS011;3784;54.098;9.998;2022-11-20T19:49:40;34.63;;;24.50;;
7485;SDS011;3784;54.098;9.998;2022-11-20T19:52:07;27.93;;;20.70;;
7485;SDS011;3784;54.098;9.998;2022-11-20T19:54:34;27.23;;;21.27;;
7485;SDS011;3784;54.098;9.998;2022-11-20T19:57:01;27.67;;;20.80;;
7485;SDS011;3784;54.098;9.998;2022-11-20T19:59:28;26.90;;;20.93;;
7485;SDS011;3784;54.098;9.998;2022-11-20T20:01:55;27.43;;;20.40;;
7485;SDS011;3784;54.098;9.998;2022-11-20T20:04:22;29.80;;;23.43;;
7485;SDS011;3784;54.098;9.998;2022-11-20T20:06:48;33.83;;;25.90;;
7485;SDS011;3784;54.098;9.998;2022-11-20T20:09:15;33.30;;;27.03;;
7485;SDS011;3784;54.098;9.998;2022-11-20T20:11:45;35.33;;;28.73;;
7485;SDS011;3784;54.098;9.998;2022-11-20T20:14:13;38.57;;;32.40;;
7485;SDS011;3784;54.098;9.998;2022-11-20T20:16:40;32.37;;;26.73;;
7485;SDS011;3784;54.098;9.998;2022-11-20T20:19:10;34.33;;;25.90;;
7485;SDS011;3784;54.098;9.998;2022-11-20T20:21:38;30.53;;;25.83;;
7485;SDS011;3784;54.098;9.998;2022-11-20T20:24:06;31.57;;;27.00;;
7485;SDS011;3784;54.098;9.998;2022-11-20T20:26:33;28.87;;;24.73;;
7485;SDS011;3784;54.098;9.998;2022-11-20T20:29:00;25.63;;;21.60;;
7485;SDS011;3784;54.098;9.998;2022-11-20T20:31:27;26.33;;;21.70;;
7485;SDS011;3784;54.098;9.998;2022-11-20T20:33:58;25.93;;;21.80;;
7485;SDS011;3784;54.098;9.998;2022-11-20T20:36:25;26.50;;;21.37;;
7485;SDS011;3784;54.098;9.998;2022-11-20T20:38:53;23.53;;;20.40;;
7485;SDS011;3784;54.098;9.998;2022-11-20T20:41:21;23.10;;;20.67;;
7485;SDS011;3784;54.098;9.998;2022-11-20T20:43:48;25.03;;;20.83;;
7485;SDS011;3784;54.098;9.998;2022-11-20T20:46:33;20.67;;;18.45;;
7485;SDS011;3784;54.098;9.998;2022-11-20T20:49:00;23.10;;;20.00;;
7485;SDS011;3784;54.098;9.998;2022-11-20T20:51:26;21.67;;;19.37;;
7485;SDS011;3784;54.098;9.998;2022-11-20T20:53:53;21.07;;;18.83;;
7485;SDS011;3784;54.098;9.998;2022-11-20T20:56:19;21.23;;;18.93;;
7485;SDS011;3784;54.098;9.998;2022-11-20T20:58:46;20.85;;;17.15;;
7485;SDS011;3784;54.098;9.998;2022-11-20T21:01:13;19.67;;;16.23;;
7485;SDS011;3784;54.098;9.998;2022-11-20T21:03:41;18.57;;;16.17;;
7485;SDS011;3784;54.098;9.998;2022-11-20T21:06:08;16.90;;;15.05;;
7485;SDS011;3784;54.098;9.998;2022-11-20T21:08:36;16.20;;;14.33;;
7485;SDS011;3784;54.098;9.998;2022-11-20T21:11:07;15.13;;;13.53;;
7485;SDS011;3784;54.098;9.998;2022-11-20T21:13:38;15.47;;;13.87;;
7485;SDS011;3784;54.098;9.998;2022-11-20T21:16:05;14.63;;;13.02;;
7485;SDS011;3784;54.098;9.998;2022-11-20T21:18:32;13.17;;;11.87;;
7485;SDS011;3784;54.098;9.998;2022-11-20T21:20:59;14.48;;;12.98;;
7485;SDS011;3784;54.098;9.998;2022-11-20T21:23:44;14.57;;;12.37;;
7485;SDS011;3784;54.098;9.998;2022-11-20T21:26:12;14.93;;;13.33;;
7485;SDS011;3784;54.098;9.998;2022-11-20T21:28:39;16.03;;;14.33;;
7485;SDS011;3784;54.098;9.998;2022-11-20T21:31:13;16.67;;;13.87;;
7485;SDS011;3784;54.098;9.998;2022-11-20T21:33:51;14.70;;;12.23;;
7485;SDS011;3784;54.098;9.998;2022-11-20T21:36:18;14.73;;;13.13;;
7485;SDS011;3784;54.098;9.998;2022-11-20T21:38:46;13.77;;;12.37;;
7485;SDS011;3784;54.098;9.998;2022-11-20T21:41:14;14.87;;;13.17;;
7485;SDS011;3784;54.098;9.998;2022-11-20T21:43:41;14.07;;;12.60;;
7485;SDS011;3784;54.098;9.998;2022-11-20T21:46:12;15.47;;;13.87;;
7485;SDS011;3784;54.098;9.998;2022-11-20T21:48:40;14.70;;;13.17;;
7485;SDS011;3784;54.098;9.998;2022-11-20T21:51:08;16.13;;;14.27;;